Flight Track Log - Related Links

Times and Time Zones

All times are in EDT time to prevent confusion due to time zone crossing. See the FDX1938 flight status page for this flight to view local times or setup timezone preferences in your user account.

Time Position Orientation Groundspeed Altitude Reporting Facility
EDT Latitude Longitude Course Direction KTS MPH feet Rate Location/Type
Thu 11:35:35 PM 39.7990 -82.9510 226° Southwest 154 177 2,200  Level FlightAware ADS-B
Thu 11:35:51 PM 39.7900 -82.9620 223° Southwest 178 205 2,600 1,467 Climbing FlightAware ADS-B
Thu 11:36:20 PM 39.7700 -82.9860 223° Southwest 232 267 3,300 1,571 Climbing FlightAware ADS-B
Thu 11:36:33 PM 39.7550 -82.9910 194° South 252 290 3,700 3,073 Climbing FlightAware ADS-B
Thu 11:37:01 PM 39.7260 -82.9700 151° Southeast 267 307 5,400 3,450 Climbing FlightAware ADS-B
Thu 11:37:13 PM 39.7210 -82.9560 115° Southeast 267 307 6,000 3,923 Climbing FlightAware ADS-B
Thu 11:37:27 PM 39.7180 -82.9310 99° East 271 312 7,100 3,955 Climbing FlightAware ADS-B
Thu 11:37:57 PM 39.7220 -82.8790 84° East 285 328 8,900 3,083 Climbing FlightAware ADS-B
Thu 11:38:39 PM 39.7340 -82.8070 78° East 321 369 10,800 2,148 Climbing FlightAware ADS-B
Thu 11:39:18 PM 39.7530 -82.7290 72° East 376 433 11,800 2,214 Climbing FlightAware ADS-B
Thu 11:40:03 PM 39.7800 -82.6280 71° East 398 458 13,900 2,602 Climbing FlightAware ADS-B
Thu 11:40:41 PM 39.7970 -82.5560 73° East 407 468 15,400 2,714 Climbing FlightAware ADS-B
Thu 11:41:27 PM 39.8270 -82.4300 73° East 421 484 17,700 2,721 Climbing FlightAware ADS-B
Thu 11:42:07 PM 39.8520 -82.3320 72° East 433 498 19,300 2,357 Climbing FlightAware ADS-B
Thu 11:42:51 PM 39.8780 -82.2210 73° East 446 513 21,000 2,233 Climbing FlightAware ADS-B
Thu 11:43:33 PM 39.9050 -82.1120 72° East 459 528 22,500 2,049 Climbing FlightAware ADS-B
Thu 11:44:13 PM 39.9300 -82.0050 73° East 467 537 23,800 1,875 Climbing FlightAware ADS-B
Thu 11:44:53 PM 39.9550 -81.8990 73° East 477 549 25,000 1,835 Climbing FlightAware ADS-B
Thu 11:45:38 PM 39.9840 -81.7770 73° East 482 555 26,400 2,163 Climbing FlightAware ADS-B
Thu 11:46:19 PM 40.0110 -81.6610 73° East 475 547 28,100 2,357 Climbing FlightAware ADS-B
Thu 11:47:02 PM 40.0370 -81.5530 73° East 466 536 29,700 2,195 Climbing FlightAware ADS-B
Thu 11:47:41 PM 40.0630 -81.4380 74° East 463 533 31,100 1,852 Climbing FlightAware ADS-B
Thu 11:48:23 PM 40.0950 -81.3270 69° East 463 533 32,200 1,465 Climbing FlightAware ADS-B
Thu 11:49:07 PM 40.1280 -81.2150 69° East 463 533 33,200 1,432 Climbing FlightAware ADS-B
Thu 11:49:51 PM 40.1620 -81.1010 69° East 462 532 34,300 1,091 Climbing FlightAware ADS-B
Thu 11:50:46 PM 40.2060 -80.9530 69° East 462 532 35,000 424 Climbing FlightAware ADS-B
Thu 11:51:30 PM 40.2390 -80.8410 69° East 462 532 35,000  Level FlightAware ADS-B
Thu 11:52:10 PM 40.2680 -80.7390 70° East 461 531 35,000  Level FlightAware ADS-B
Thu 11:52:51 PM 40.3000 -80.6300 69° East 459 528 35,000  Level FlightAware ADS-B
Thu 11:53:36 PM 40.3340 -80.5120 69° East 461 531 35,000  Level FlightAware ADS-B
Thu 11:54:16 PM 40.3640 -80.4070 69° East 463 533 35,000  Level FlightAware ADS-B
Thu 11:54:56 PM 40.3940 -80.3020 69° East 463 533 35,000  Level FlightAware ADS-B
Thu 11:55:42 PM 40.4290 -80.1810 69° East 465 535 35,000  Level FlightAware ADS-B
Thu 11:56:22 PM 40.4590 -80.0750 70° East 466 536 35,000  Level FlightAware ADS-B
Thu 11:57:06 PM 40.4930 -79.9590 69° East 467 537 35,000  Level FlightAware ADS-B
Thu 11:57:48 PM 40.5240 -79.8470 70° East 467 537 35,000  Level FlightAware ADS-B
Thu 11:58:30 PM 40.5560 -79.7350 69° East 466 536 35,000  Level FlightAware ADS-B
Thu 11:59:10 PM 40.5860 -79.6280 70° East 466 536 35,000  Level FlightAware ADS-B
Thu 11:59:54 PM 40.6170 -79.5160 70° East 468 539 35,000  Level FlightAware ADS-B
Fri 12:02:14 AM 40.6530 -79.3850 70° East 470 541 35,000  Level FlightAware ADS-B
Fri 12:02:58 AM 40.7540 -79.0160 70° East 471 542 35,000  Level FlightAware ADS-B
Fri 12:03:40 AM 40.7850 -78.9050 70° East 470 541 35,000  Level FlightAware ADS-B
Fri 12:04:20 AM 40.8150 -78.7940 70° East 472 543 35,000  Level FlightAware ADS-B
Fri 12:05:04 AM 40.8470 -78.6750 70° East 474 545 35,000  Level FlightAware ADS-B
Fri 12:05:45 AM 40.8740 -78.5740 71° East 476 548 35,000  Level FlightAware ADS-B
Fri 12:06:25 AM 40.9020 -78.4700 70° East 474 545 35,000  Level FlightAware ADS-B
Fri 12:07:19 AM 40.9120 -78.3130 85° East 484 557 35,000  Level FlightAware ADS-B
Fri 12:08:04 AM 40.9120 -78.1650 90° East 484 557 35,000  Level FlightAware ADS-B
Fri 12:08:44 AM 40.9120 -78.0470 90° East 485 558 35,000  Level FlightAware ADS-B
Fri 12:09:31 AM 40.9126 -77.9014 90° East 487 560 35,000  Level FlightAware ADS-B
Fri 12:10:06 AM 40.9127 -77.8002 90° East 488 562 35,000  Level FlightAware ADS-B
Fri 12:10:36 AM 40.9126 -77.7079 90° East 489 563 35,000  Level FlightAware ADS-B
Fri 12:11:07 AM 40.9125 -77.6185 90° East 488 562 35,000  Level FlightAware ADS-B
Fri 12:11:55 AM 40.9121 -77.4727 90° East 489 563 35,000  Level FlightAware ADS-B
Fri 12:12:38 AM 40.9115 -77.3442 90° East 491 565 35,000  Level FlightAware ADS-B
Fri 12:13:09 AM 40.9111 -77.2511 90° East 493 567 35,000  Level FlightAware ADS-B
Fri 12:13:41 AM 40.9106 -77.1546 90° East 494 568 35,000  Level FlightAware ADS-B
Fri 12:14:12 AM 40.9100 -77.0641 90° East 494 568 35,000  Level FlightAware ADS-B
Fri 12:14:42 AM 40.9094 -76.9708 90° East 494 568 35,000  Level FlightAware ADS-B
Fri 12:15:13 AM 40.9088 -76.8774 90° East 496 571 35,000 -194 Level FlightAware ADS-B
Fri 12:15:44 AM 40.9080 -76.7863 91° East 498 573 34,800 -1,452 Descending FlightAware ADS-B
Fri 12:16:15 AM 40.9072 -76.6932 91° East 491 565 33,500 -3,049 Descending FlightAware ADS-B
Fri 12:16:45 AM 40.9062 -76.6002 91° East 493 567 31,700 -3,500 Descending FlightAware ADS-B
Fri 12:17:15 AM 40.9051 -76.5098 91° East 492 566 30,000 -3,500 Descending FlightAware ADS-B
Fri 12:17:45 AM 40.9040 -76.4199 91° East 491 565 28,200 -3,836 Descending FlightAware ADS-B
Fri 12:18:16 AM 40.9030 -76.3271 91° East 492 566 26,100 -3,581 Descending FlightAware ADS-B
Fri 12:18:47 AM 40.9018 -76.2381 91° East 481 554 24,500 -3,246 Descending FlightAware ADS-B
Fri 12:19:17 AM 40.9005 -76.1478 91° East 473 544 22,800 -3,148 Descending FlightAware ADS-B
Fri 12:19:48 AM 40.8991 -76.0621 91° East 463 533 21,300 -2,903 Descending FlightAware ADS-B
Fri 12:20:19 AM 40.8979 -75.9756 91° East 452 520 19,800 -2,857 Descending FlightAware ADS-B
Fri 12:20:51 AM 40.8966 -75.8862 91° East 440 506 18,300 -2,806 Descending FlightAware ADS-B
Fri 12:21:21 AM 40.8952 -75.8065 91° East 431 496 16,900 -2,900 Descending FlightAware ADS-B
Fri 12:21:51 AM 40.8937 -75.7284 91° East 422 486 15,400 -2,852 Descending FlightAware ADS-B
Fri 12:22:22 AM 40.8923 -75.6517 91° East 414 476 14,000 -2,754 Descending FlightAware ADS-B
Fri 12:22:52 AM 40.8908 -75.5769 91° East 405 466 12,600 -2,700 Descending FlightAware ADS-B
Fri 12:23:22 AM 40.8895 -75.5036 91° East 394 453 11,300 -2,200 Descending FlightAware ADS-B
Fri 12:23:52 AM 40.8880 -75.4302 92° East 375 432 10,400 -984 Descending FlightAware ADS-B
Fri 12:24:23 AM 40.8866 -75.3634 92° East 334 384 10,300 -429 Descending FlightAware ADS-B
Fri 12:25:02 AM 40.8849 -75.2903 92° East 320 368 9,900 -915 Descending FlightAware ADS-B
Fri 12:25:22 AM 40.8841 -75.2533 92° East 300 345 9,400 -1,412 Descending FlightAware ADS-B
Fri 12:25:36 AM 40.8835 -75.2259 92° East 297 342 9,100 -1,161 Descending FlightAware ADS-B
Fri 12:25:53 AM 40.8827 -75.1954 92° East 295 339 8,800 -706 Descending FlightAware ADS-B
Fri 12:26:10 AM 40.8818 -75.1664 92° East 294 338 8,700 -182 Descending FlightAware ADS-B
Fri 12:26:26 AM 40.8810 -75.1378 92° East 292 336 8,700  Level FlightAware ADS-B
Fri 12:26:35 AM 40.8805 -75.1200 92° East 292 336 8,700  Level FlightAware ADS-B
Fri 12:26:39 AM 40.8801 -75.1146 96° East 293 337 8,700  Level FlightAware ADS-B
Fri 12:26:42 AM 40.8794 -75.1077 98° East 294 338 8,700  Level FlightAware ADS-B
Fri 12:26:46 AM 40.8783 -75.1023 105° East 293 337 8,700  Level FlightAware ADS-B
Fri 12:26:49 AM 40.8771 -75.0972 107° East 293 337 8,700  Level FlightAware ADS-B
Fri 12:27:04 AM 40.8701 -75.0701 109° East 294 338 8,700  Level FlightAware ADS-B
Fri 12:27:20 AM 40.8626 -75.0432 110° East 293 337 8,700  Level FlightAware ADS-B
Fri 12:27:27 AM 40.8597 -75.0313 108° East 293 337 8,700  Level FlightAware ADS-B
Fri 12:27:33 AM 40.8583 -75.0208 100° East 293 337 8,700  Level FlightAware ADS-B
Fri 12:27:38 AM 40.8583 -75.0118 90° East 294 338 8,700  Level FlightAware ADS-B
Fri 12:27:42 AM 40.8588 -75.0065 83° East 295 339 8,700  Level FlightAware ADS-B
Fri 12:27:45 AM 40.8595 -75.0012 80° East 295 339 8,700  Level FlightAware ADS-B
Fri 12:28:00 AM 40.8636 -74.9747 78° East 295 339 8,700  Level FlightAware ADS-B
Fri 12:28:15 AM 40.8680 -74.9465 78° East 295 339 8,700 -200 Level FlightAware ADS-B
Fri 12:28:30 AM 40.8723 -74.9200 78° East 297 342 8,600 -581 Descending FlightAware ADS-B
Fri 12:28:46 AM 40.8766 -74.8932 78° East 296 341 8,400 -938 Descending FlightAware ADS-B
Fri 12:29:02 AM 40.8809 -74.8649 79° East 293 337 8,100 -968 Descending FlightAware ADS-B
Fri 12:29:17 AM 40.8848 -74.8389 79° East 290 334 7,900 -923 Descending FlightAware ADS-B
Fri 12:29:28 AM 40.8875 -74.8197 79° East 287 330 7,700 -923 Descending FlightAware ADS-B
Fri 12:29:43 AM 40.8911 -74.7921 80° East 285 328 7,500 -968 Descending FlightAware ADS-B
Fri 12:29:59 AM 40.8946 -74.7663 80° East 284 327 7,200 -973 Descending FlightAware ADS-B
Fri 12:30:20 AM 40.8992 -74.7303 80° East 283 326 6,900 -955 Descending FlightAware ADS-B
Fri 12:30:43 AM 40.9042 -74.6911 80° East 283 326 6,500 -1,000 Descending FlightAware ADS-B
Fri 12:31:02 AM 40.9083 -74.6590 80° East 280 322 6,200 -1,059 Descending FlightAware ADS-B
Fri 12:31:17 AM 40.9117 -74.6320 81° East 278 320 5,900 -968 Descending FlightAware ADS-B
Fri 12:31:33 AM 40.9152 -74.6071 79° East 276 318 5,700 -968 Descending FlightAware ADS-B
Fri 12:31:48 AM 40.9187 -74.5822 79° East 274 315 5,400 -938 Descending FlightAware ADS-B
Fri 12:32:05 AM 40.9224 -74.5541 80° East 274 315 5,200 -857 Descending FlightAware ADS-B
Fri 12:32:09 AM 40.9230 -74.5474 83° East 275 316 5,100 -1,500 Descending FlightAware ADS-B
Fri 12:32:13 AM 40.9230 -74.5407 90° East 276 318 5,000 -857 Descending FlightAware ADS-B
Fri 12:32:16 AM 40.9227 -74.5358 95° East 277 319 5,000 -857 Level FlightAware ADS-B
Fri 12:32:20 AM 40.9219 -74.5274 97° East 276 318 4,900 -1,200 Descending FlightAware ADS-B
Fri 12:32:31 AM 40.9196 -74.5091 99° East 275 316 4,700 -947 Descending FlightAware ADS-B
Fri 12:32:39 AM 40.9182 -74.4974 99° East 276 318 4,600 -1,000 Descending FlightAware ADS-B
Fri 12:32:49 AM 40.9162 -74.4806 99° East 275 316 4,400 -1,125 Descending FlightAware ADS-B
Fri 12:32:55 AM 40.9150 -74.4707 99° East 275 316 4,300 -857 Descending FlightAware ADS-B
Fri 12:33:10 AM 40.9122 -74.4441 98° East 277 319 4,100 -618 Descending FlightAware ADS-B
Fri 12:34:03 AM 40.9040 -74.3620 98° East 278 320 3,600 -966 Descending FlightAware ADS-B
Fri 12:34:37 AM 40.8980 -74.2990 97° East 276 318 2,700 -818 Descending FlightAware ADS-B
Fri 12:35:09 AM 40.8940 -74.2450 96° East 276 318 2,700  Level FlightAware ADS-B
Fri 12:35:31 AM 40.8903 -74.2067 97° East 277 319 2,700  Level FlightAware ADS-B
Fri 12:35:46 AM 40.8883 -74.1836 97° East 264 304 2,700  Level FlightAware ADS-B
Fri 12:36:00 AM 40.8864 -74.1601 96° East 249 287 2,700  Level FlightAware ADS-B
Fri 12:36:04 AM 40.8857 -74.1558 102° East 244 281 2,700  Level FlightAware ADS-B
Fri 12:36:08 AM 40.8845 -74.1500 105° East 238 274 2,700  Level FlightAware ADS-B
Fri 12:36:11 AM 40.8832 -74.1459 113° Southeast 234 269 2,700  Level FlightAware ADS-B
Fri 12:36:17 AM 40.8797 -74.1387 123° Southeast 229 264 2,700  Level FlightAware ADS-B
Fri 12:36:20 AM 40.8775 -74.1346 125° Southeast 226 260 2,700  Level FlightAware ADS-B
Fri 12:36:23 AM 40.8748 -74.1318 142° Southeast 223 257 2,700  Level FlightAware ADS-B
Fri 12:36:28 AM 40.8710 -74.1276 140° Southeast 221 254 2,700  Level FlightAware ADS-B
Fri 12:36:36 AM 40.8647 -74.1219 146° Southeast 220 253 2,700  Level FlightAware ADS-B
Fri 12:36:48 AM 40.8548 -74.1115 142° Southeast 217 250 2,700  Level FlightAware ADS-B
Fri 12:36:54 AM 40.8502 -74.1077 148° Southeast 217 250 2,700  Level FlightAware ADS-B
Fri 12:36:57 AM 40.8474 -74.1055 149° Southeast 216 249 2,700  Level FlightAware ADS-B
Fri 12:37:01 AM 40.8433 -74.1027 153° Southeast 213 245 2,700 -750 Level FlightAware ADS-B
Fri 12:37:05 AM 40.8405 -74.1015 162° South 209 241 2,600 -1,500 Descending FlightAware ADS-B
Fri 12:37:09 AM 40.8358 -74.1003 169° South 206 237 2,500 -900 Descending FlightAware ADS-B
Fri 12:37:25 AM 40.8216 -74.0979 173° South 200 230 2,300 -837 Descending FlightAware ADS-B
Fri 12:37:52 AM 40.7984 -74.1002 184° South 193 222 1,900 -857 Descending FlightAware ADS-B
Fri 12:38:00 AM 40.7933 -74.1038 208° Southwest 166 191 1,800 -750 Descending FlightAware ADS-B
Fri 12:38:08 AM 40.7881 -74.1078 210° Southwest 160 184 1,700 -1,091 Descending FlightAware ADS-B
Fri 12:38:11 AM 40.7860 -74.1092 207° Southwest 159 183 1,600 -947 Descending FlightAware ADS-B
Fri 12:38:27 AM 40.7758 -74.1155 205° Southwest 146 168 1,400 -923 Descending FlightAware ADS-B
Fri 12:38:37 AM 40.7695 -74.1194 205° Southwest 137 158 1,200 -720 Descending FlightAware ADS-B
Fri 12:38:52 AM 40.7613 -74.1244 205° Southwest 125 144 1,100 -581 Descending FlightAware ADS-B
Fri 12:39:08 AM 40.7540 -74.1291 206° Southwest 109 125 900 -774 Descending FlightAware ADS-B
Fri 12:39:23 AM 40.7470 -74.1339 207° Southwest 108 124 700 -692 Descending FlightAware ADS-B
Fri 12:39:34 AM 40.7421 -74.1371 206° Southwest 112 129 600 -571 Descending FlightAware ADS-B
Fri 12:39:44 AM 40.7376 -74.1398 204° Southwest 114 131 500 -600 Descending FlightAware ADS-B
Fri 12:40:04 AM 40.7275 -74.1463 206° Southwest 119 137 300 -600 Descending FlightAware ADS-B

Login

Don't have an account? Register now (free) for customized features, flight alerts, and more!